createdAt,value
2018-10-11T00:01:47.634Z,99.90
2018-10-11T00:04:20.660Z,99.90
2018-10-11T00:06:55.018Z,99.90
2018-10-11T00:09:27.641Z,99.90
2018-10-11T00:11:59.948Z,99.90
2018-10-11T00:14:32.300Z,99.90
2018-10-11T00:17:04.510Z,99.90
2018-10-11T00:19:36.855Z,99.90
2018-10-11T00:22:09.459Z,99.90
2018-10-11T00:24:42.248Z,99.90
2018-10-11T00:27:15.039Z,99.90
2018-10-11T00:29:47.963Z,99.90
2018-10-11T00:32:33.918Z,99.90
2018-10-11T00:35:19.937Z,99.90
2018-10-11T00:38:06.405Z,99.90
2018-10-11T00:40:53.183Z,99.90
2018-10-11T00:43:39.205Z,99.90
2018-10-11T00:46:25.221Z,99.90
2018-10-11T00:49:11.137Z,99.90
2018-10-11T00:51:57.235Z,99.90
2018-10-11T00:54:44.917Z,99.90
2018-10-11T00:57:31.286Z,99.90
2018-10-11T01:00:18.143Z,99.90
2018-10-11T01:03:04.312Z,99.90
2018-10-11T01:05:50.369Z,99.90
2018-10-11T01:08:37.215Z,99.90
2018-10-11T01:11:23.599Z,99.90
2018-10-11T01:14:10.023Z,99.90
2018-10-11T01:16:55.900Z,99.90
2018-10-11T01:19:42.165Z,99.90
2018-10-11T01:22:28.296Z,99.90
2018-10-11T01:25:14.260Z,99.90
2018-10-11T01:28:00.219Z,99.90
2018-10-11T01:30:46.152Z,99.90
2018-10-11T01:33:31.993Z,99.90
2018-10-11T01:36:18.055Z,99.90
2018-10-11T01:39:04.096Z,99.90
2018-10-11T01:41:50.173Z,99.90
2018-10-11T01:44:36.129Z,99.90
2018-10-11T01:47:22.130Z,99.90
2018-10-11T01:50:08.031Z,99.90
2018-10-11T01:52:54.102Z,99.90
2018-10-11T01:55:40.047Z,99.90
2018-10-11T01:58:26.106Z,99.90
2018-10-11T02:01:12.027Z,99.90
2018-10-11T02:03:58.005Z,99.90
2018-10-11T02:06:44.596Z,99.90
2018-10-11T02:09:31.290Z,99.90
2018-10-11T02:12:18.073Z,99.90
2018-10-11T02:15:04.229Z,99.90
2018-10-11T02:17:50.121Z,99.90
2018-10-11T02:20:36.344Z,99.90
2018-10-11T02:23:23.128Z,99.90
2018-10-11T02:26:09.805Z,99.90
2018-10-11T02:28:56.435Z,99.90
2018-10-11T02:31:29.488Z,99.90
2018-10-11T02:34:02.532Z,99.90
2018-10-11T02:36:38.528Z,99.90
2018-10-11T02:39:13.139Z,99.90
2018-10-11T02:41:46.291Z,99.90
2018-10-11T02:44:19.122Z,99.90
2018-10-11T02:46:51.979Z,99.90
2018-10-11T02:49:24.756Z,99.90
2018-10-11T02:51:57.972Z,99.90
2018-10-11T02:54:30.760Z,99.90
2018-10-11T02:57:06.435Z,99.90
2018-10-11T02:59:39.470Z,99.90
2018-10-11T03:02:15.874Z,99.90
2018-10-11T03:04:50.705Z,99.90
2018-10-11T03:07:23.891Z,99.90
2018-10-11T03:09:56.431Z,99.90
2018-10-11T03:12:28.816Z,99.90
2018-10-11T03:15:02.736Z,99.90
2018-10-11T03:17:35.059Z,99.90
2018-10-11T03:20:07.448Z,99.90
2018-10-11T03:22:40.901Z,99.90
2018-10-11T03:25:13.148Z,99.90
2018-10-11T03:27:45.449Z,99.90
2018-10-11T03:30:17.664Z,99.90
2018-10-11T03:32:50.467Z,99.90
2018-10-11T03:35:23.245Z,99.90
2018-10-11T03:37:56.491Z,99.90
2018-10-11T03:40:29.187Z,99.90
2018-10-11T03:43:01.640Z,99.90
2018-10-11T03:45:33.815Z,99.90
2018-10-11T03:48:06.068Z,99.90
2018-10-11T03:50:38.285Z,99.90
2018-10-11T03:53:10.584Z,99.90
2018-10-11T03:55:42.791Z,99.90
2018-10-11T03:58:15.584Z,99.90
2018-10-11T04:00:48.359Z,99.90
2018-10-11T04:03:21.470Z,99.90
2018-10-11T04:05:54.465Z,99.90
2018-10-11T04:08:27.853Z,99.90
2018-10-11T04:11:00.604Z,99.90
2018-10-11T04:13:33.488Z,99.90
2018-10-11T04:16:06.517Z,99.90
2018-10-11T04:18:39.395Z,99.90
2018-10-11T04:21:12.917Z,99.90
2018-10-11T04:23:46.036Z,99.90
2018-10-11T04:26:19.114Z,99.90
2018-10-11T04:28:51.988Z,99.90
2018-10-11T04:31:24.190Z,99.90
2018-10-11T04:33:56.515Z,99.90
2018-10-11T04:36:28.712Z,99.90
2018-10-11T04:39:01.288Z,99.90
2018-10-11T04:41:33.489Z,99.90
2018-10-11T04:44:05.971Z,99.90
2018-10-11T04:46:38.179Z,99.90
2018-10-11T04:49:10.705Z,99.90
2018-10-11T04:51:43.629Z,99.90
2018-10-11T04:54:15.907Z,99.90
2018-10-11T04:56:48.143Z,99.90
2018-10-11T04:59:20.405Z,99.90
2018-10-11T05:01:52.911Z,99.90
2018-10-11T05:04:25.254Z,99.90
2018-10-11T05:06:57.582Z,99.90
2018-10-11T05:09:29.869Z,99.90
2018-10-11T05:12:02.738Z,99.90
2018-10-11T05:14:35.880Z,99.90
2018-10-11T05:17:08.273Z,99.90
2018-10-11T05:19:43.009Z,99.90
2018-10-11T05:22:15.223Z,99.90
2018-10-11T05:24:47.546Z,99.90
2018-10-11T05:27:20.530Z,99.90
2018-10-11T05:29:53.491Z,99.90
2018-10-11T05:32:27.145Z,99.90
2018-10-11T05:35:00.064Z,99.90
2018-10-11T05:37:33.180Z,99.90
2018-10-11T05:40:06.554Z,99.90
2018-10-11T05:42:39.668Z,99.90
2018-10-11T05:45:17.875Z,99.90
2018-10-11T05:47:51.285Z,99.90
2018-10-11T05:50:24.194Z,99.90
2018-10-11T05:52:56.897Z,99.90
2018-10-11T05:55:29.815Z,99.90
2018-10-11T05:58:02.433Z,99.90
2018-10-11T06:00:34.836Z,99.90
2018-10-11T06:03:07.260Z,99.90
2018-10-11T06:05:39.780Z,99.90
2018-10-11T06:08:12.604Z,99.90
2018-10-11T06:10:46.244Z,99.90
2018-10-11T06:13:19.064Z,99.90
2018-10-11T06:15:51.574Z,99.90
2018-10-11T06:18:24.430Z,99.90
2018-10-11T06:20:56.757Z,99.90
2018-10-11T06:23:29.074Z,99.90
2018-10-11T06:26:01.709Z,99.90
2018-10-11T06:28:34.184Z,99.90
2018-10-11T06:31:06.748Z,99.90
2018-10-11T06:33:39.454Z,99.90
2018-10-11T06:36:12.289Z,99.90
2018-10-11T06:38:45.215Z,99.90
2018-10-11T06:41:18.349Z,99.90
2018-10-11T06:43:50.908Z,99.90
2018-10-11T06:46:23.704Z,99.90
2018-10-11T06:48:56.527Z,99.90
2018-10-11T06:51:29.041Z,99.90
2018-10-11T06:54:01.328Z,99.90
2018-10-11T06:56:33.668Z,99.90
2018-10-11T06:59:05.904Z,99.90
2018-10-11T07:01:38.246Z,99.90
2018-10-11T07:04:10.482Z,99.90
2018-10-11T07:06:43.029Z,99.90
2018-10-11T07:09:15.733Z,99.90
2018-10-11T07:11:48.535Z,99.90
2018-10-11T07:14:21.095Z,99.90
2018-10-11T07:16:53.828Z,99.90
2018-10-11T07:19:26.683Z,99.90
2018-10-11T07:21:59.545Z,99.90
2018-10-11T07:24:32.121Z,99.90
2018-10-11T07:27:05.597Z,99.90
2018-10-11T07:29:38.476Z,99.90
2018-10-11T07:32:11.193Z,99.90
2018-10-11T07:34:43.864Z,99.90
2018-10-11T07:37:16.803Z,99.90
2018-10-11T07:39:49.395Z,99.90
2018-10-11T07:42:22.320Z,99.90
2018-10-11T07:44:55.204Z,99.90
2018-10-11T07:47:28.492Z,99.90
2018-10-11T07:50:01.065Z,99.90
2018-10-11T07:52:33.844Z,99.90
2018-10-11T07:55:06.582Z,99.90
2018-10-11T07:57:39.547Z,99.90
2018-10-11T08:00:14.350Z,99.90
2018-10-11T08:02:46.964Z,99.90
2018-10-11T08:05:19.846Z,99.90
2018-10-11T08:07:52.797Z,99.90
2018-10-11T08:10:25.108Z,99.90
2018-10-11T08:12:57.371Z,99.90
2018-10-11T08:15:29.580Z,99.90
2018-10-11T08:18:02.039Z,99.90
2018-10-11T08:20:34.260Z,99.90
2018-10-11T08:23:06.687Z,99.90
2018-10-11T08:25:39.791Z,99.90
2018-10-11T08:28:12.034Z,99.90
2018-10-11T08:30:44.284Z,99.90
2018-10-11T08:33:16.628Z,99.90
2018-10-11T08:35:48.908Z,99.90
2018-10-11T08:38:21.276Z,99.90
2018-10-11T08:40:53.487Z,99.90
2018-10-11T08:43:25.918Z,99.90
2018-10-11T08:45:58.138Z,99.90
2018-10-11T08:48:30.705Z,99.90
2018-10-11T08:51:02.929Z,99.90
2018-10-11T08:53:35.299Z,99.90
2018-10-11T08:56:07.770Z,99.90
2018-10-11T08:58:41.832Z,99.90
2018-10-11T09:01:14.035Z,99.90
2018-10-11T09:03:46.383Z,99.90
2018-10-11T09:06:18.681Z,99.90
2018-10-11T09:08:51.205Z,99.90
2018-10-11T09:11:23.640Z,99.90
2018-10-11T09:13:56.034Z,99.90
2018-10-11T09:16:28.240Z,99.90
2018-10-11T09:19:00.518Z,99.90
2018-10-11T09:21:32.908Z,99.90
2018-10-11T09:24:05.189Z,99.90
2018-10-11T09:26:37.388Z,99.90
2018-10-11T09:29:09.908Z,99.90
2018-10-11T09:31:42.114Z,99.90
2018-10-11T09:34:14.396Z,99.90
2018-10-11T09:36:46.617Z,99.90
2018-10-11T09:39:18.899Z,99.90
2018-10-11T09:41:51.096Z,99.90
2018-10-11T09:44:23.493Z,99.90
2018-10-11T09:46:55.720Z,99.90
2018-10-11T09:49:28.001Z,99.90
2018-10-11T09:52:00.245Z,99.90
2018-10-11T09:54:32.634Z,99.90
2018-10-11T09:57:36.459Z,99.90
2018-10-11T10:00:16.164Z,99.90
2018-10-11T10:02:49.907Z,99.90
2018-10-11T10:05:22.679Z,99.90
2018-10-11T10:07:55.293Z,99.90
2018-10-11T10:10:27.835Z,99.90
2018-10-11T10:13:00.602Z,99.90
2018-10-11T10:15:33.420Z,99.90
2018-10-11T10:18:06.260Z,99.90
2018-10-11T10:20:38.984Z,99.90
2018-10-11T10:23:11.797Z,99.90
2018-10-11T10:25:44.799Z,99.90
2018-10-11T10:28:17.612Z,99.90
2018-10-11T10:30:57.407Z,99.90
2018-10-11T10:33:30.271Z,99.90
2018-10-11T10:36:03.141Z,99.90
2018-10-11T10:38:35.424Z,99.90
2018-10-11T10:41:08.135Z,99.90
2018-10-11T10:43:40.341Z,99.90
2018-10-11T10:46:12.657Z,99.90
2018-10-11T10:48:45.726Z,99.90
2018-10-11T10:51:18.275Z,99.90
2018-10-11T10:53:50.475Z,99.90
2018-10-11T10:56:22.757Z,99.90
2018-10-11T10:58:55.793Z,99.90
2018-10-11T11:01:28.799Z,99.90
2018-10-11T11:04:00.996Z,99.90
2018-10-11T11:06:33.287Z,99.90
2018-10-11T11:09:06.601Z,99.90
2018-10-11T11:11:39.260Z,99.90
2018-10-11T11:14:13.027Z,99.90
2018-10-11T11:16:45.760Z,99.90
2018-10-11T11:19:18.763Z,99.90
2018-10-11T11:21:51.511Z,99.90
2018-10-11T11:24:24.127Z,99.90
2018-10-11T11:26:56.905Z,99.90
2018-10-11T11:29:29.528Z,99.90
2018-10-11T11:32:02.146Z,99.90
2018-10-11T11:34:34.366Z,99.90
2018-10-11T11:37:06.649Z,99.90
2018-10-11T11:39:38.848Z,99.90
2018-10-11T11:42:11.282Z,99.90
2018-10-11T11:44:44.164Z,99.90
2018-10-11T11:47:17.260Z,99.90
2018-10-11T11:49:49.896Z,99.90
2018-10-11T11:52:22.465Z,99.90
2018-10-11T11:54:54.730Z,99.90
2018-10-11T11:57:27.020Z,99.90
2018-10-11T11:59:59.196Z,99.90
2018-10-11T12:02:31.607Z,99.90
2018-10-11T12:05:04.728Z,99.90
2018-10-11T12:07:37.480Z,99.90
2018-10-11T12:10:10.282Z,99.90
2018-10-11T12:13:14.472Z,99.90
2018-10-11T12:15:47.263Z,99.90
2018-10-11T12:18:20.510Z,99.90
2018-10-11T12:20:53.048Z,99.90
2018-10-11T12:23:26.103Z,99.90
2018-10-11T12:25:58.739Z,99.90
2018-10-11T12:28:31.446Z,99.90
2018-10-11T12:31:04.533Z,99.90
2018-10-11T12:33:37.140Z,99.90
2018-10-11T12:36:10.569Z,99.90
2018-10-11T12:38:43.995Z,99.90
2018-10-11T12:41:16.886Z,99.90
2018-10-11T12:43:49.680Z,99.90
2018-10-11T12:46:22.708Z,99.90
2018-10-11T12:48:55.752Z,99.90
2018-10-11T12:51:28.544Z,99.90
2018-10-11T12:54:01.402Z,99.90
2018-10-11T12:56:34.183Z,99.90
2018-10-11T12:59:07.239Z,99.90
2018-10-11T13:01:40.243Z,99.90
2018-10-11T13:04:13.059Z,99.90
2018-10-11T13:06:45.651Z,99.90
2018-10-11T13:09:18.578Z,99.90
2018-10-11T13:11:51.612Z,99.90
2018-10-11T13:14:24.768Z,99.90
2018-10-11T13:16:57.640Z,99.90
2018-10-11T13:19:30.886Z,99.90
2018-10-11T13:22:03.737Z,99.90
2018-10-11T13:24:39.767Z,99.90
2018-10-11T13:27:09.064Z,99.90
2018-10-11T13:29:42.159Z,99.90
2018-10-11T13:32:14.968Z,99.90
2018-10-11T13:34:48.044Z,99.90
2018-10-11T13:37:20.883Z,99.90
2018-10-11T13:39:56.990Z,99.90
2018-10-11T13:42:26.750Z,99.90
2018-10-11T13:44:59.543Z,99.90
2018-10-11T13:47:35.292Z,99.90
2018-10-11T13:50:05.437Z,99.90
2018-10-11T13:52:38.973Z,99.90
2018-10-11T13:55:15.049Z,99.90
2018-10-11T13:57:44.159Z,99.90
2018-10-11T14:00:16.499Z,99.90
2018-10-11T14:02:48.720Z,99.90
2018-10-11T14:05:21.577Z,99.90
2018-10-11T14:07:54.668Z,99.90
2018-10-11T14:10:27.736Z,99.90
2018-10-11T14:13:00.454Z,99.90
2018-10-11T14:15:33.510Z,99.90
2018-10-11T14:18:09.285Z,99.90
2018-10-11T14:20:38.180Z,99.90
2018-10-11T14:23:10.479Z,99.90
2018-10-11T14:25:42.857Z,99.90
2018-10-11T14:28:15.066Z,99.90
2018-10-11T14:30:47.395Z,99.90
2018-10-11T14:33:20.309Z,99.90
2018-10-11T14:35:53.496Z,99.90
2018-10-11T14:38:26.448Z,99.90
2018-10-11T14:40:59.346Z,99.90
2018-10-11T14:43:32.475Z,99.90
2018-10-11T14:46:05.553Z,99.90
2018-10-11T14:48:38.416Z,99.90
2018-10-11T14:51:11.848Z,99.90
2018-10-11T14:53:51.658Z,99.90
2018-10-11T14:56:21.518Z,99.90
2018-10-11T14:58:55.047Z,99.90
2018-10-11T15:01:28.080Z,99.90
2018-10-11T15:04:01.288Z,99.90
2018-10-11T15:06:34.145Z,99.90
2018-10-11T15:09:09.161Z,99.90
2018-10-11T15:11:42.216Z,99.00
2018-10-11T15:14:15.696Z,96.60
2018-10-11T15:16:49.253Z,97.50
2018-10-11T15:19:22.552Z,95.20
2018-10-11T15:21:55.448Z,94.20
2018-10-11T15:24:28.288Z,93.80
2018-10-11T15:27:01.102Z,94.30
2018-10-11T15:29:33.926Z,92.00
2018-10-11T15:32:06.621Z,93.60
2018-10-11T15:34:39.481Z,90.20
2018-10-11T15:37:12.637Z,89.30
2018-10-11T15:39:45.720Z,87.80
2018-10-11T15:42:19.366Z,88.20
2018-10-11T15:44:52.420Z,82.40
2018-10-11T15:47:25.529Z,79.30
2018-10-11T15:49:58.952Z,89.30
2018-10-11T15:52:32.336Z,90.00
2018-10-11T15:55:05.249Z,89.80
2018-10-11T15:57:38.611Z,89.80
2018-10-11T16:00:12.436Z,90.90
2018-10-11T16:02:46.148Z,89.40
2018-10-11T16:05:20.502Z,90.10
2018-10-11T16:07:53.788Z,91.00
2018-10-11T16:10:30.525Z,91.00
2018-10-11T16:13:03.664Z,88.10
2018-10-11T16:15:36.885Z,91.20
2018-10-11T16:18:09.959Z,88.40
2018-10-11T16:20:42.811Z,86.80
2018-10-11T16:23:15.798Z,84.20
2018-10-11T16:25:48.710Z,84.40
2018-10-11T16:28:21.264Z,84.00
2018-10-11T16:30:54.045Z,82.60
2018-10-11T16:33:28.489Z,80.60
2018-10-11T16:36:01.494Z,81.60
2018-10-11T16:38:34.915Z,85.00
2018-10-11T16:41:08.095Z,85.40
2018-10-11T16:43:42.397Z,84.70
2018-10-11T16:46:15.896Z,86.00
2018-10-11T16:48:50.606Z,82.20
2018-10-11T16:51:23.866Z,83.20
2018-10-11T16:54:01.977Z,81.60
2018-10-11T16:56:39.547Z,82.20
2018-10-11T16:59:12.772Z,80.70
2018-10-11T17:01:51.238Z,80.20
2018-10-11T17:04:24.375Z,79.50
2018-10-11T17:06:58.080Z,78.60
2018-10-11T17:09:30.761Z,78.40
2018-10-11T17:12:04.098Z,75.70
2018-10-11T17:14:38.080Z,75.20
2018-10-11T17:17:10.933Z,77.80
2018-10-11T17:19:44.747Z,77.10
2018-10-11T17:22:18.096Z,77.00
2018-10-11T17:24:51.913Z,78.20
2018-10-11T17:27:25.052Z,76.00
2018-10-11T17:29:58.100Z,74.80
2018-10-11T17:32:31.537Z,71.80
2018-10-11T17:35:04.736Z,72.50
2018-10-11T17:37:39.187Z,72.50
2018-10-11T17:40:12.611Z,70.20
2018-10-11T17:42:46.163Z,69.80
2018-10-11T17:45:19.490Z,67.10
2018-10-11T17:47:52.604Z,71.80
2018-10-11T17:50:27.122Z,70.20
2018-10-11T17:53:00.231Z,69.40
2018-10-11T17:55:33.371Z,68.30
2018-10-11T17:58:06.340Z,68.80
2018-10-11T18:00:38.997Z,69.60
2018-10-11T18:03:11.344Z,71.90
2018-10-11T18:05:44.596Z,72.00
2018-10-11T18:08:20.461Z,70.80
2018-10-11T18:10:53.352Z,69.60
2018-10-11T18:13:25.811Z,69.70
2018-10-11T18:15:58.421Z,70.80
2018-10-11T18:18:30.748Z,70.40
2018-10-11T18:21:03.832Z,70.40
2018-10-11T18:23:36.821Z,70.90
2018-10-11T18:26:09.980Z,70.60
2018-10-11T18:28:42.606Z,67.60
2018-10-11T18:31:15.369Z,71.30
2018-10-11T18:33:48.198Z,71.20
2018-10-11T18:36:21.448Z,72.50
2018-10-11T18:38:57.312Z,72.00
2018-10-11T18:41:30.696Z,73.20
2018-10-11T18:44:04.274Z,76.10
2018-10-11T18:46:37.130Z,78.60
2018-10-11T18:49:10.706Z,81.70
2018-10-11T18:51:43.605Z,82.10
2018-10-11T18:54:16.468Z,90.70
2018-10-11T18:56:49.982Z,94.60
2018-10-11T18:59:23.039Z,99.90
2018-10-11T19:01:57.417Z,99.90
2018-10-11T19:04:30.274Z,99.90
2018-10-11T19:07:03.174Z,99.90
2018-10-11T19:09:36.072Z,99.90
2018-10-11T19:12:09.199Z,99.90
2018-10-11T19:14:41.918Z,99.90
2018-10-11T19:17:15.654Z,99.90
2018-10-11T19:19:48.213Z,99.90
2018-10-11T19:22:34.992Z,99.90
2018-10-11T19:25:21.913Z,99.90
2018-10-11T19:28:08.724Z,99.90
2018-10-11T19:30:55.646Z,99.90
2018-10-11T19:33:42.598Z,99.90
2018-10-11T19:36:28.956Z,99.90
2018-10-11T19:39:15.266Z,99.90
2018-10-11T19:42:01.385Z,99.90
2018-10-11T19:44:48.363Z,99.90
2018-10-11T19:47:34.869Z,99.90
2018-10-11T19:50:21.512Z,99.90
2018-10-11T19:53:08.010Z,99.90
2018-10-11T19:55:54.688Z,99.90
2018-10-11T19:58:40.663Z,99.90
2018-10-11T20:01:27.204Z,99.90
2018-10-11T20:04:13.836Z,99.90
2018-10-11T20:07:00.696Z,99.90
2018-10-11T20:09:46.901Z,99.90
2018-10-11T20:12:33.096Z,99.90
2018-10-11T20:15:19.723Z,99.90
2018-10-11T20:18:06.400Z,99.90
2018-10-11T20:20:53.031Z,99.90
2018-10-11T20:23:39.704Z,99.90
2018-10-11T20:26:26.372Z,99.90
2018-10-11T20:29:13.467Z,99.90
2018-10-11T20:32:00.248Z,99.90
2018-10-11T20:34:48.397Z,99.90
2018-10-11T20:37:34.350Z,99.90
2018-10-11T20:40:22.163Z,99.90
2018-10-11T20:43:08.861Z,99.90
2018-10-11T20:45:55.539Z,99.90
2018-10-11T20:48:42.090Z,99.90
2018-10-11T20:51:28.761Z,99.90
2018-10-11T20:54:15.419Z,99.90
2018-10-11T20:57:01.896Z,99.90
2018-10-11T20:59:49.334Z,99.90
2018-10-11T21:02:36.660Z,99.90
2018-10-11T21:05:24.239Z,99.90
2018-10-11T21:08:11.687Z,99.90
2018-10-11T21:10:58.451Z,99.90
2018-10-11T21:13:45.051Z,99.90
2018-10-11T21:16:31.551Z,99.90
2018-10-11T21:19:18.065Z,99.90
2018-10-11T21:21:50.920Z,99.90
2018-10-11T21:24:24.112Z,99.90
2018-10-11T21:26:56.839Z,99.90
2018-10-11T21:29:32.028Z,99.90
2018-10-11T21:32:04.785Z,99.90
2018-10-11T21:34:37.970Z,99.90
2018-10-11T21:37:10.442Z,99.90
2018-10-11T21:39:42.971Z,99.90
2018-10-11T21:42:15.363Z,99.90
2018-10-11T21:44:47.761Z,99.90
2018-10-11T21:47:20.065Z,99.90
2018-10-11T21:49:52.439Z,99.90
2018-10-11T21:52:24.732Z,99.90
2018-10-11T21:54:57.345Z,99.90
2018-10-11T21:57:29.888Z,99.90
2018-10-11T22:00:02.289Z,99.90
2018-10-11T22:02:34.542Z,99.90
2018-10-11T22:05:06.911Z,99.90
2018-10-11T22:07:40.052Z,99.90
2018-10-11T22:10:12.974Z,99.90
2018-10-11T22:12:45.908Z,99.90
2018-10-11T22:15:19.537Z,99.90
2018-10-11T22:17:51.826Z,99.90
2018-10-11T22:20:24.460Z,99.90
2018-10-11T22:22:57.094Z,99.90
2018-10-11T22:25:30.747Z,99.90
2018-10-11T22:28:03.433Z,99.90
2018-10-11T22:30:36.344Z,99.90
2018-10-11T22:33:08.849Z,99.90
2018-10-11T22:35:41.944Z,99.90
2018-10-11T22:38:15.133Z,99.90
2018-10-11T22:40:48.560Z,99.90
2018-10-11T22:43:20.900Z,99.90
2018-10-11T22:46:09.734Z,99.90
2018-10-11T22:48:42.975Z,99.90
2018-10-11T22:51:16.074Z,99.90
2018-10-11T22:53:48.968Z,99.90
2018-10-11T22:56:23.754Z,99.90
2018-10-11T22:58:56.406Z,99.90
2018-10-11T23:01:28.796Z,99.90
2018-10-11T23:04:01.665Z,99.90
2018-10-11T23:06:34.025Z,99.90
2018-10-11T23:09:08.297Z,99.90
2018-10-11T23:11:40.902Z,99.90
2018-10-11T23:14:13.683Z,99.90
2018-10-11T23:16:47.235Z,99.90
2018-10-11T23:19:19.963Z,99.90
2018-10-11T23:21:52.872Z,99.90
2018-10-11T23:24:25.743Z,99.90
2018-10-11T23:26:58.451Z,99.90
2018-10-11T23:29:31.492Z,99.90
2018-10-11T23:32:04.715Z,99.90
2018-10-11T23:34:37.663Z,99.90
2018-10-11T23:37:10.719Z,99.90
2018-10-11T23:39:43.946Z,99.90
2018-10-11T23:42:17.003Z,99.90
2018-10-11T23:44:49.257Z,99.90
2018-10-11T23:47:21.684Z,99.90
2018-10-11T23:49:54.589Z,99.90
2018-10-11T23:52:27.700Z,99.90
2018-10-11T23:55:00.872Z,99.90
2018-10-11T23:57:34.055Z,99.90
